sensor_id;sensor_type;location;lat;lon;timestamp;pressure;altitude;pressure_sealevel;temperature;humidity
43681;BME280;29281;50.356;30.894;2023-05-25T00:00:46;100088.63;;;18.81;83.56
43681;BME280;29281;50.356;30.894;2023-05-25T00:01:51;100089.31;;;18.83;83.49
43681;BME280;29281;50.356;30.894;2023-05-25T00:02:57;100083.67;;;18.94;82.79
43681;BME280;29281;50.356;30.894;2023-05-25T00:04:02;100082.61;;;18.87;82.97
43681;BME280;29281;50.356;30.894;2023-05-25T00:05:07;100085.27;;;18.79;83.68
43681;BME280;29281;50.356;30.894;2023-05-25T00:06:10;100088.90;;;18.70;84.60
43681;BME280;29281;50.356;30.894;2023-05-25T00:07:14;100087.17;;;18.60;85.18
43681;BME280;29281;50.356;30.894;2023-05-25T00:08:18;100080.16;;;18.50;86.14
43681;BME280;29281;50.356;30.894;2023-05-25T00:09:23;100086.88;;;18.46;86.67
43681;BME280;29281;50.356;30.894;2023-05-25T00:10:27;100081.65;;;18.44;86.97
43681;BME280;29281;50.356;30.894;2023-05-25T00:11:31;100084.64;;;18.41;87.03
43681;BME280;29281;50.356;30.894;2023-05-25T00:12:34;100085.06;;;18.28;87.79
43681;BME280;29281;50.356;30.894;2023-05-25T00:13:40;100082.73;;;18.34;87.75
43681;BME280;29281;50.356;30.894;2023-05-25T00:14:44;100084.91;;;18.30;88.14
43681;BME280;29281;50.356;30.894;2023-05-25T00:15:48;100076.84;;;18.30;87.88
43681;BME280;29281;50.356;30.894;2023-05-25T00:16:51;100078.30;;;18.24;88.18
43681;BME280;29281;50.356;30.894;2023-05-25T00:17:55;100081.30;;;18.21;88.53
43681;BME280;29281;50.356;30.894;2023-05-25T00:18:59;100082.83;;;18.24;88.51
43681;BME280;29281;50.356;30.894;2023-05-25T00:20:03;100083.68;;;18.24;88.50
43681;BME280;29281;50.356;30.894;2023-05-25T00:21:08;100082.83;;;18.24;88.56
43681;BME280;29281;50.356;30.894;2023-05-25T00:22:14;100081.30;;;18.21;89.05
43681;BME280;29281;50.356;30.894;2023-05-25T00:23:16;100081.14;;;18.23;89.12
43681;BME280;29281;50.356;30.894;2023-05-25T00:24:19;100085.60;;;18.32;88.49
43681;BME280;29281;50.356;30.894;2023-05-25T00:25:27;100080.73;;;18.36;88.21
43681;BME280;29281;50.356;30.894;2023-05-25T00:26:30;100084.19;;;18.46;87.72
43681;BME280;29281;50.356;30.894;2023-05-25T00:27:34;100074.63;;;18.51;87.50
43681;BME280;29281;50.356;30.894;2023-05-25T00:28:37;100075.84;;;18.57;87.71
43681;BME280;29281;50.356;30.894;2023-05-25T00:29:41;100080.23;;;18.58;87.35
43681;BME280;29281;50.356;30.894;2023-05-25T00:30:45;100092.05;;;18.65;87.02
43681;BME280;29281;50.356;30.894;2023-05-25T00:31:51;100087.90;;;18.71;86.72
43681;BME280;29281;50.356;30.894;2023-05-25T00:32:57;100086.74;;;18.73;86.43
43681;BME280;29281;50.356;30.894;2023-05-25T00:34:03;100091.66;;;18.78;86.13
43681;BME280;29281;50.356;30.894;2023-05-25T00:35:07;100085.77;;;18.82;85.79
43681;BME280;29281;50.356;30.894;2023-05-25T00:36:11;100084.77;;;18.83;85.76
43681;BME280;29281;50.356;30.894;2023-05-25T00:37:15;100086.15;;;18.87;85.25
43681;BME280;29281;50.356;30.894;2023-05-25T00:38:18;100089.53;;;18.89;85.05
43681;BME280;29281;50.356;30.894;2023-05-25T00:39:22;100090.38;;;18.90;84.75
43681;BME280;29281;50.356;30.894;2023-05-25T00:40:24;100083.67;;;18.94;85.15
43681;BME280;29281;50.356;30.894;2023-05-25T00:41:29;100095.09;;;18.96;84.61
43681;BME280;29281;50.356;30.894;2023-05-25T00:42:33;100081.45;;;18.89;85.07
43681;BME280;29281;50.356;30.894;2023-05-25T00:43:38;100084.46;;;18.86;85.34
43681;BME280;29281;50.356;30.894;2023-05-25T00:44:41;100082.77;;;18.85;85.47
43681;BME280;29281;50.356;30.894;2023-05-25T00:45:44;100076.77;;;18.91;84.90
43681;BME280;29281;50.356;30.894;2023-05-25T00:46:48;100085.46;;;18.85;85.28
43681;BME280;29281;50.356;30.894;2023-05-25T00:47:54;100082.61;;;18.87;85.18
43681;BME280;29281;50.356;30.894;2023-05-25T00:48:58;100088.84;;;18.87;85.17
43681;BME280;29281;50.356;30.894;2023-05-25T00:50:02;100088.68;;;18.89;85.07
43681;BME280;29281;50.356;30.894;2023-05-25T00:51:06;100079.95;;;18.95;84.76
43681;BME280;29281;50.356;30.894;2023-05-25T00:52:12;100082.92;;;18.84;84.97
43681;BME280;29281;50.356;30.894;2023-05-25T00:53:17;100082.05;;;18.75;85.76
43681;BME280;29281;50.356;30.894;2023-05-25T00:54:21;100086.09;;;18.79;85.64
43681;BME280;29281;50.356;30.894;2023-05-25T00:55:24;100083.08;;;18.82;85.49
43681;BME280;29281;50.356;30.894;2023-05-25T00:56:31;100076.17;;;18.80;85.62
43681;BME280;29281;50.356;30.894;2023-05-25T00:57:38;100077.52;;;18.76;86.07
43681;BME280;29281;50.356;30.894;2023-05-25T00:58:45;100077.52;;;18.76;85.92
43681;BME280;29281;50.356;30.894;2023-05-25T00:59:52;100080.55;;;18.81;85.66
43681;BME280;29281;50.356;30.894;2023-05-25T01:00:56;100073.70;;;18.86;85.18
43681;BME280;29281;50.356;30.894;2023-05-25T01:03:18;100074.80;;;19.10;84.37
43681;BME280;29281;50.356;30.894;2023-05-25T01:04:27;100078.84;;;19.06;83.94
43681;BME280;29281;50.356;30.894;2023-05-25T01:05:33;100081.03;;;19.10;83.38
43681;BME280;29281;50.356;30.894;2023-05-25T01:06:38;100071.30;;;19.09;83.23
43681;BME280;29281;50.356;30.894;2023-05-25T01:07:42;100077.49;;;19.10;82.96
43681;BME280;29281;50.356;30.894;2023-05-25T01:08:48;100072.80;;;19.12;82.71
43681;BME280;29281;50.356;30.894;2023-05-25T01:10:05;100073.98;;;19.09;82.92
43681;BME280;29281;50.356;30.894;2023-05-25T01:10:56;100071.30;;;19.09;82.81
43681;BME280;29281;50.356;30.894;2023-05-25T01:12:01;100073.32;;;19.15;82.21
43681;BME280;29281;50.356;30.894;2023-05-25T01:13:04;100070.16;;;19.20;81.99
43681;BME280;29281;50.356;30.894;2023-05-25T01:14:11;100070.16;;;19.20;82.18
43681;BME280;29281;50.356;30.894;2023-05-25T01:15:15;100069.31;;;19.19;82.20
43681;BME280;29281;50.356;30.894;2023-05-25T01:16:19;100077.91;;;19.23;81.92
43681;BME280;29281;50.356;30.894;2023-05-25T01:17:23;100074.37;;;19.22;81.52
43681;BME280;29281;50.356;30.894;2023-05-25T01:18:28;100076.06;;;19.23;81.58
43681;BME280;29281;50.356;30.894;2023-05-25T01:19:32;100073.53;;;19.22;81.45
43681;BME280;29281;50.356;30.894;2023-05-25T01:20:37;100075.22;;;19.23;81.41
43681;BME280;29281;50.356;30.894;2023-05-25T01:23:02;100070.31;;;19.18;81.19
43681;BME280;29281;50.356;30.894;2023-05-25T01:24:10;100072.69;;;19.21;81.28
43681;BME280;29281;50.356;30.894;2023-05-25T01:25:15;100081.25;;;19.25;81.31
43681;BME280;29281;50.356;30.894;2023-05-25T01:26:20;100074.37;;;19.22;81.55
43681;BME280;29281;50.356;30.894;2023-05-25T01:27:32;100078.91;;;19.22;81.59
43681;BME280;29281;50.356;30.894;2023-05-25T01:28:37;100076.22;;;19.22;81.29
43681;BME280;29281;50.356;30.894;2023-05-25T01:29:43;100077.56;;;19.26;81.76
43681;BME280;29281;50.356;30.894;2023-05-25T01:30:48;100075.55;;;19.28;81.32
43681;BME280;29281;50.356;30.894;2023-05-25T01:31:53;100083.63;;;19.28;81.25
43681;BME280;29281;50.356;30.894;2023-05-25T01:33:06;100077.75;;;19.24;81.72
43681;BME280;29281;50.356;30.894;2023-05-25T01:34:12;100083.09;;;19.16;83.05
43681;BME280;29281;50.356;30.894;2023-05-25T01:35:18;100078.39;;;19.18;82.70
43681;BME280;29281;50.356;30.894;2023-05-25T01:36:22;100081.08;;;19.18;82.84
43681;BME280;29281;50.356;30.894;2023-05-25T01:37:26;100079.70;;;19.14;82.02
43681;BME280;29281;50.356;30.894;2023-05-25T01:38:28;100083.94;;;19.17;81.94
43681;BME280;29281;50.356;30.894;2023-05-25T01:39:31;100081.39;;;19.15;81.93
43681;BME280;29281;50.356;30.894;2023-05-25T01:40:35;100082.40;;;19.14;82.09
43681;BME280;29281;50.356;30.894;2023-05-25T01:41:39;100083.09;;;19.16;81.82
43681;BME280;29281;50.356;30.894;2023-05-25T01:42:42;100072.84;;;19.20;81.43
43681;BME280;29281;50.356;30.894;2023-05-25T01:43:45;100080.08;;;19.19;81.43
43681;BME280;29281;50.356;30.894;2023-05-25T01:44:48;100079.23;;;19.19;81.66
43681;BME280;29281;50.356;30.894;2023-05-25T01:45:52;100087.78;;;19.14;82.04
43681;BME280;29281;50.356;30.894;2023-05-25T01:47:20;100086.25;;;19.12;82.41
43681;BME280;29281;50.356;30.894;2023-05-25T01:49:25;100083.33;;;18.97;83.11
43681;BME280;29281;50.356;30.894;2023-05-25T01:50:33;100084.48;;;18.94;83.16
43681;BME280;29281;50.356;30.894;2023-05-25T01:53:03;100084.46;;;18.86;83.75
43681;BME280;29281;50.356;30.894;2023-05-25T01:54:21;100078.83;;;18.72;84.93
43681;BME280;29281;50.356;30.894;2023-05-25T01:55:22;100082.83;;;18.68;85.10
43681;BME280;29281;50.356;30.894;2023-05-25T01:56:30;100075.14;;;18.73;84.93
43681;BME280;29281;50.356;30.894;2023-05-25T01:57:35;100080.20;;;18.76;84.93
43681;BME280;29281;50.356;30.894;2023-05-25T01:58:44;100079.70;;;18.80;84.96
43681;BME280;29281;50.356;30.894;2023-05-25T01:59:44;100079.61;;;18.90;84.26
43681;BME280;29281;50.356;30.894;2023-05-25T02:00:47;100089.22;;;18.92;84.07
43681;BME280;29281;50.356;30.894;2023-05-25T02:01:52;100084.17;;;18.97;84.00
43681;BME280;29281;50.356;30.894;2023-05-25T02:02:56;100087.86;;;18.96;83.74
43681;BME280;29281;50.356;30.894;2023-05-25T02:04:00;100089.87;;;18.94;83.85
43681;BME280;29281;50.356;30.894;2023-05-25T02:05:07;100087.55;;;19.00;83.52
43681;BME280;29281;50.356;30.894;2023-05-25T02:06:11;100090.72;;;18.95;83.64
43681;BME280;29281;50.356;30.894;2023-05-25T02:07:15;100089.53;;;18.89;83.84
43681;BME280;29281;50.356;30.894;2023-05-25T02:08:19;100097.69;;;18.80;84.57
43681;BME280;29281;50.356;30.894;2023-05-25T02:09:24;100098.22;;;18.83;84.59
43681;BME280;29281;50.356;30.894;2023-05-25T02:10:30;100097.50;;;18.73;85.11
43681;BME280;29281;50.356;30.894;2023-05-25T02:11:33;100096.09;;;18.61;85.87
43681;BME280;29281;50.356;30.894;2023-05-25T02:12:37;100094.59;;;18.67;85.63
43681;BME280;29281;50.356;30.894;2023-05-25T02:13:41;100098.44;;;18.64;85.43
43681;BME280;29281;50.356;30.894;2023-05-25T02:14:44;100094.09;;;18.63;84.97
43681;BME280;29281;50.356;30.894;2023-05-25T02:15:49;100093.75;;;18.66;84.55
43681;BME280;29281;50.356;30.894;2023-05-25T02:16:53;100095.81;;;18.72;84.05
43681;BME280;29281;50.356;30.894;2023-05-25T02:17:56;100102.07;;;18.81;83.08
43681;BME280;29281;50.356;30.894;2023-05-25T02:18:59;100092.90;;;18.66;83.12
43681;BME280;29281;50.356;30.894;2023-05-25T02:20:03;100100.81;;;18.67;83.33
43681;BME280;29281;50.356;30.894;2023-05-25T02:21:11;100102.20;;;18.53;83.43
43681;BME280;29281;50.356;30.894;2023-05-25T02:22:14;100104.31;;;18.42;84.28
43681;BME280;29281;50.356;30.894;2023-05-25T02:23:20;100102.73;;;18.31;84.96
43681;BME280;29281;50.356;30.894;2023-05-25T02:24:25;100094.33;;;18.34;85.61
43681;BME280;29281;50.356;30.894;2023-05-25T02:25:27;100103.93;;;18.37;85.37
43681;BME280;29281;50.356;30.894;2023-05-25T02:26:32;100099.20;;;18.31;85.61
43681;BME280;29281;50.356;30.894;2023-05-25T02:27:36;100103.23;;;18.35;85.80
43681;BME280;29281;50.356;30.894;2023-05-25T02:28:39;100107.84;;;18.42;85.56
43681;BME280;29281;50.356;30.894;2023-05-25T02:29:44;100106.62;;;18.37;86.09
43681;BME280;29281;50.356;30.894;2023-05-25T02:30:49;100107.61;;;18.36;86.33
43681;BME280;29281;50.356;30.894;2023-05-25T02:31:53;100107.95;;;18.33;86.81
43681;BME280;29281;50.356;30.894;2023-05-25T02:32:59;100108.95;;;18.32;87.11
43681;BME280;29281;50.356;30.894;2023-05-25T02:34:04;100099.42;;;18.19;87.66
43681;BME280;29281;50.356;30.894;2023-05-25T02:35:08;100110.80;;;18.13;88.19
43681;BME280;29281;50.356;30.894;2023-05-25T02:36:13;100116.03;;;18.15;87.95
43681;BME280;29281;50.356;30.894;2023-05-25T02:37:18;100097.42;;;18.21;87.61
43681;BME280;29281;50.356;30.894;2023-05-25T02:38:23;100105.19;;;18.24;87.58
43681;BME280;29281;50.356;30.894;2023-05-25T02:39:35;100106.02;;;18.25;87.39
43681;BME280;29281;50.356;30.894;2023-05-25T02:40:38;100113.85;;;18.18;87.66
43681;BME280;29281;50.356;30.894;2023-05-25T02:41:42;100112.19;;;18.17;87.23
43681;BME280;29281;50.356;30.894;2023-05-25T02:42:44;100116.18;;;18.13;87.93
43681;BME280;29281;50.356;30.894;2023-05-25T02:43:47;100113.49;;;18.13;87.60
43681;BME280;29281;50.356;30.894;2023-05-25T02:44:51;100116.48;;;18.10;87.89
43681;BME280;29281;50.356;30.894;2023-05-25T02:45:54;100115.19;;;18.14;87.83
43681;BME280;29281;50.356;30.894;2023-05-25T02:46:57;100114.03;;;18.17;87.43
43681;BME280;29281;50.356;30.894;2023-05-25T02:48:02;100117.63;;;18.25;86.93
43681;BME280;29281;50.356;30.894;2023-05-25T02:49:06;100117.63;;;18.25;86.73
43681;BME280;29281;50.356;30.894;2023-05-25T02:50:11;100117.08;;;18.22;87.00
43681;BME280;29281;50.356;30.894;2023-05-25T02:51:16;100118.87;;;18.13;87.69
43681;BME280;29281;50.356;30.894;2023-05-25T02:52:20;100114.39;;;18.22;87.51
43681;BME280;29281;50.356;30.894;2023-05-25T02:53:26;100112.34;;;18.16;87.99
43681;BME280;29281;50.356;30.894;2023-05-25T02:54:30;100116.78;;;18.07;88.46
43681;BME280;29281;50.356;30.894;2023-05-25T02:55:35;100116.73;;;17.99;89.26
43681;BME280;29281;50.356;30.894;2023-05-25T02:56:40;100114.09;;;17.89;89.96
43681;BME280;29281;50.356;30.894;2023-05-25T02:57:45;100112.41;;;18.06;89.00
43681;BME280;29281;50.356;30.894;2023-05-25T02:58:50;100112.65;;;18.13;88.49
43681;BME280;29281;50.356;30.894;2023-05-25T02:59:59;100114.70;;;18.19;88.25
43681;BME280;29281;50.356;30.894;2023-05-25T03:00:59;100107.66;;;18.18;88.20
43681;BME280;29281;50.356;30.894;2023-05-25T03:02:02;100110.86;;;18.21;88.30
43681;BME280;29281;50.356;30.894;2023-05-25T03:03:07;100107.66;;;18.18;88.86
43681;BME280;29281;50.356;30.894;2023-05-25T03:04:10;100110.41;;;18.26;88.33
43681;BME280;29281;50.356;30.894;2023-05-25T03:05:13;100107.56;;;18.27;88.39
43681;BME280;29281;50.356;30.894;2023-05-25T03:06:21;100109.69;;;18.42;87.55
43681;BME280;29281;50.356;30.894;2023-05-25T03:07:27;100113.80;;;18.54;86.63
43681;BME280;29281;50.356;30.894;2023-05-25T03:08:31;100118.45;;;18.61;86.16
43681;BME280;29281;50.356;30.894;2023-05-25T03:09:35;100113.42;;;18.67;86.14
43681;BME280;29281;50.356;30.894;2023-05-25T03:10:39;100118.87;;;18.75;85.63
43681;BME280;29281;50.356;30.894;2023-05-25T03:11:42;100129.83;;;18.81;85.11
43681;BME280;29281;50.356;30.894;2023-05-25T03:12:47;100126.35;;;18.89;84.42
43681;BME280;29281;50.356;30.894;2023-05-25T03:13:50;100128.92;;;18.98;83.92
43681;BME280;29281;50.356;30.894;2023-05-25T03:14:56;100121.41;;;19.10;83.39
43681;BME280;29281;50.356;30.894;2023-05-25T03:16:02;100122.63;;;19.16;82.49
43681;BME280;29281;50.356;30.894;2023-05-25T03:17:05;100124.84;;;19.20;82.16
43681;BME280;29281;50.356;30.894;2023-05-25T03:18:09;100126.00;;;19.18;82.23
43681;BME280;29281;50.356;30.894;2023-05-25T03:19:13;100132.76;;;19.22;82.33
43681;BME280;29281;50.356;30.894;2023-05-25T03:20:17;100124.33;;;19.25;81.99
43681;BME280;29281;50.356;30.894;2023-05-25T03:21:21;100127.84;;;19.17;82.24
43681;BME280;29281;50.356;30.894;2023-05-25T03:22:25;100124.84;;;19.20;82.43
43681;BME280;29281;50.356;30.894;2023-05-25T03:23:28;100124.52;;;19.23;82.17
43681;BME280;29281;50.356;30.894;2023-05-25T03:24:33;100131.70;;;19.15;82.59
43681;BME280;29281;50.356;30.894;2023-05-25T03:25:37;100134.55;;;19.13;83.07
43681;BME280;29281;50.356;30.894;2023-05-25T03:26:41;100131.07;;;19.21;82.94
43681;BME280;29281;50.356;30.894;2023-05-25T03:27:44;100122.17;;;19.28;82.28
43681;BME280;29281;50.356;30.894;2023-05-25T03:28:51;100124.16;;;19.18;82.76
43681;BME280;29281;50.356;30.894;2023-05-25T03:29:56;100128.61;;;19.36;82.08
43681;BME280;29281;50.356;30.894;2023-05-25T03:30:59;100123.33;;;19.60;80.74
43681;BME280;29281;50.356;30.894;2023-05-25T03:32:04;100119.51;;;19.71;80.49
43681;BME280;29281;50.356;30.894;2023-05-25T03:33:08;100123.86;;;19.72;80.02
43681;BME280;29281;50.356;30.894;2023-05-25T03:34:13;100120.30;;;19.55;80.84
43681;BME280;29281;50.356;30.894;2023-05-25T03:35:16;100124.01;;;19.62;81.14
43681;BME280;29281;50.356;30.894;2023-05-25T03:36:20;100128.38;;;19.55;81.21
43681;BME280;29281;50.356;30.894;2023-05-25T03:37:24;100123.84;;;19.63;81.35
43681;BME280;29281;50.356;30.894;2023-05-25T03:38:28;100128.08;;;19.66;80.92
43681;BME280;29281;50.356;30.894;2023-05-25T03:39:30;100121.69;;;19.75;80.42
43681;BME280;29281;50.356;30.894;2023-05-25T03:40:36;100127.11;;;19.83;80.13
43681;BME280;29281;50.356;30.894;2023-05-25T03:41:40;100118.34;;;19.89;80.04
43681;BME280;29281;50.356;30.894;2023-05-25T03:42:50;100123.73;;;19.89;79.41
43681;BME280;29281;50.356;30.894;2023-05-25T03:43:53;100116.84;;;19.95;78.95
43681;BME280;29281;50.356;30.894;2023-05-25T03:44:55;100123.92;;;19.96;78.89
43681;BME280;29281;50.356;30.894;2023-05-25T03:45:59;100120.71;;;19.92;78.90
43681;BME280;29281;50.356;30.894;2023-05-25T03:47:06;100124.91;;;19.87;79.15
43681;BME280;29281;50.356;30.894;2023-05-25T03:48:09;100113.80;;;19.82;79.60
43681;BME280;29281;50.356;30.894;2023-05-25T03:49:13;100118.86;;;19.85;79.79
43681;BME280;29281;50.356;30.894;2023-05-25T03:50:17;100119.54;;;20.03;79.21
43681;BME280;29281;50.356;30.894;2023-05-25T03:51:21;100125.45;;;19.98;78.87
43681;BME280;29281;50.356;30.894;2023-05-25T03:52:24;100114.50;;;20.08;78.45
43681;BME280;29281;50.356;30.894;2023-05-25T03:53:27;100124.93;;;20.03;78.85
43681;BME280;29281;50.356;30.894;2023-05-25T03:54:34;100116.38;;;20.16;78.22
43681;BME280;29281;50.356;30.894;2023-05-25T03:55:39;100117.53;;;20.21;77.91
43681;BME280;29281;50.356;30.894;2023-05-25T03:56:46;100123.61;;;20.23;78.12
43681;BME280;29281;50.356;30.894;2023-05-25T03:57:49;100116.53;;;20.22;78.25
43681;BME280;29281;50.356;30.894;2023-05-25T03:58:52;100119.22;;;20.22;78.47
43681;BME280;29281;50.356;30.894;2023-05-25T03:59:55;100121.09;;;20.30;78.12
43681;BME280;29281;50.356;30.894;2023-05-25T04:01:02;100121.27;;;20.28;78.28
43681;BME280;29281;50.356;30.894;2023-05-25T04:02:07;100115.70;;;20.30;78.30
43681;BME280;29281;50.356;30.894;2023-05-25T04:03:11;100123.31;;;20.43;77.47
43681;BME280;29281;50.356;30.894;2023-05-25T04:04:15;100117.03;;;20.34;77.44
43681;BME280;29281;50.356;30.894;2023-05-25T04:05:18;100124.11;;;20.35;77.95
43681;BME280;29281;50.356;30.894;2023-05-25T04:06:21;100116.38;;;20.16;79.43
43681;BME280;29281;50.356;30.894;2023-05-25T04:07:29;100129.50;;;20.35;78.16
43681;BME280;29281;50.356;30.894;2023-05-25T04:08:33;100124.95;;;20.35;77.41
43681;BME280;29281;50.356;30.894;2023-05-25T04:09:39;100126.67;;;20.53;76.49
43681;BME280;29281;50.356;30.894;2023-05-25T04:10:44;100124.83;;;20.61;75.61
43681;BME280;29281;50.356;30.894;2023-05-25T04:11:48;100123.13;;;20.52;76.18
43681;BME280;29281;50.356;30.894;2023-05-25T04:12:52;100123.47;;;20.57;76.06
43681;BME280;29281;50.356;30.894;2023-05-25T04:13:59;100123.95;;;20.77;75.16
43681;BME280;29281;50.356;30.894;2023-05-25T04:15:05;100125.78;;;20.85;74.47
43681;BME280;29281;50.356;30.894;2023-05-25T04:16:13;100125.45;;;20.80;74.28
43681;BME280;29281;50.356;30.894;2023-05-25T04:17:21;100132.16;;;21.00;73.45
43681;BME280;29281;50.356;30.894;2023-05-25T04:18:26;100131.31;;;21.08;73.24
43681;BME280;29281;50.356;30.894;2023-05-25T04:19:29;100127.08;;;21.21;73.09
43681;BME280;29281;50.356;30.894;2023-05-25T04:20:34;100135.96;;;21.38;72.36
43681;BME280;29281;50.356;30.894;2023-05-25T04:21:39;100140.81;;;21.43;71.11
43681;BME280;29281;50.356;30.894;2023-05-25T04:22:42;100129.66;;;21.46;70.45
43681;BME280;29281;50.356;30.894;2023-05-25T04:23:51;100129.64;;;21.54;69.76
43681;BME280;29281;50.356;30.894;2023-05-25T04:24:52;100132.05;;;21.71;69.04
43681;BME280;29281;50.356;30.894;2023-05-25T04:25:55;100130.16;;;21.80;68.07
43681;BME280;29281;50.356;30.894;2023-05-25T04:27:00;100138.70;;;21.92;67.18
43681;BME280;29281;50.356;30.894;2023-05-25T04:28:04;100140.35;;;22.01;67.20
43681;BME280;29281;50.356;30.894;2023-05-25T04:29:20;100137.19;;;22.20;66.68
43681;BME280;29281;50.356;30.894;2023-05-25T04:30:32;100130.56;;;22.00;66.91
43681;BME280;29281;50.356;30.894;2023-05-25T04:31:43;100135.22;;;21.83;67.40
43681;BME280;29281;50.356;30.894;2023-05-25T04:32:51;100129.33;;;21.80;67.88
43681;BME280;29281;50.356;30.894;2023-05-25T04:33:59;100129.98;;;21.82;67.64
43681;BME280;29281;50.356;30.894;2023-05-25T04:35:08;100131.03;;;21.72;68.23
43681;BME280;29281;50.356;30.894;2023-05-25T04:36:17;100125.28;;;21.75;68.50
43681;BME280;29281;50.356;30.894;2023-05-25T04:37:23;100127.81;;;21.77;68.74
43681;BME280;29281;50.356;30.894;2023-05-25T04:38:33;100124.94;;;21.79;68.96
43681;BME280;29281;50.356;30.894;2023-05-25T04:39:39;100132.31;;;21.85;68.76
43681;BME280;29281;50.356;30.894;2023-05-25T04:40:43;100128.83;;;22.07;67.83
43681;BME280;29281;50.356;30.894;2023-05-25T04:41:49;100132.92;;;22.26;66.76
43681;BME280;29281;50.356;30.894;2023-05-25T04:42:53;100142.81;;;22.56;65.36
43681;BME280;29281;50.356;30.894;2023-05-25T04:43:57;100131.99;;;22.56;65.35
43681;BME280;29281;50.356;30.894;2023-05-25T04:45:03;100139.66;;;23.34;63.19
43681;BME280;29281;50.356;30.894;2023-05-25T04:46:06;100136.73;;;24.65;58.24
43681;BME280;29281;50.356;30.894;2023-05-25T04:47:11;100150.81;;;25.66;55.10
43681;BME280;29281;50.356;30.894;2023-05-25T04:48:14;100167.77;;;27.27;50.46
43681;BME280;29281;50.356;30.894;2023-05-25T04:49:19;100178.80;;;29.23;45.38
43681;BME280;29281;50.356;30.894;2023-05-25T04:50:23;100191.75;;;30.67;41.94
43681;BME280;29281;50.356;30.894;2023-05-25T04:51:26;100209.69;;;31.74;39.48
43681;BME280;29281;50.356;30.894;2023-05-25T04:52:31;100214.55;;;32.24;37.87
43681;BME280;29281;50.356;30.894;2023-05-25T04:53:36;100231.28;;;33.13;36.42
43681;BME280;29281;50.356;30.894;2023-05-25T04:54:39;100229.36;;;33.69;35.00
43681;BME280;29281;50.356;30.894;2023-05-25T04:55:44;100225.80;;;34.12;34.22
43681;BME280;29281;50.356;30.894;2023-05-25T04:56:50;100237.09;;;33.88;34.11
43681;BME280;29281;50.356;30.894;2023-05-25T04:57:55;100235.07;;;34.49;33.37
43681;BME280;29281;50.356;30.894;2023-05-25T04:58:59;100236.82;;;34.87;32.52
43681;BME280;29281;50.356;30.894;2023-05-25T05:00:04;100240.97;;;35.22;31.88
43681;BME280;29281;50.356;30.894;2023-05-25T05:01:09;100244.97;;;35.04;31.46
43681;BME280;29281;50.356;30.894;2023-05-25T05:02:13;100241.80;;;35.22;31.19
43681;BME280;29281;50.356;30.894;2023-05-25T05:03:17;100243.34;;;35.40;31.41
43681;BME280;29281;50.356;30.894;2023-05-25T05:04:22;100242.59;;;35.55;30.56
43681;BME280;29281;50.356;30.894;2023-05-25T05:05:25;100245.73;;;35.27;30.59
43681;BME280;29281;50.356;30.894;2023-05-25T05:06:29;100232.34;;;34.54;31.79
43681;BME280;29281;50.356;30.894;2023-05-25T05:07:35;100236.74;;;34.77;31.73
43681;BME280;29281;50.356;30.894;2023-05-25T05:08:40;100241.47;;;35.14;30.50
43681;BME280;29281;50.356;30.894;2023-05-25T05:09:44;100247.23;;;35.44;30.05
43681;BME280;29281;50.356;30.894;2023-05-25T05:10:48;100248.92;;;35.13;29.18
43681;BME280;29281;50.356;30.894;2023-05-25T05:11:52;100244.11;;;33.24;31.37
43681;BME280;29281;50.356;30.894;2023-05-25T05:12:57;100227.03;;;32.03;33.59
43681;BME280;29281;50.356;30.894;2023-05-25T05:14:01;100223.37;;;31.63;34.68
43681;BME280;29281;50.356;30.894;2023-05-25T05:15:06;100227.22;;;32.54;34.08
43681;BME280;29281;50.356;30.894;2023-05-25T05:16:10;100231.33;;;33.51;32.46
43681;BME280;29281;50.356;30.894;2023-05-25T05:17:14;100229.27;;;33.08;33.13
43681;BME280;29281;50.356;30.894;2023-05-25T05:18:18;100225.62;;;32.58;33.69
43681;BME280;29281;50.356;30.894;2023-05-25T05:19:26;100227.61;;;33.07;33.25
43681;BME280;29281;50.356;30.894;2023-05-25T05:20:30;100228.34;;;32.86;32.90
43681;BME280;29281;50.356;30.894;2023-05-25T05:21:34;100234.70;;;32.58;33.24
43681;BME280;29281;50.356;30.894;2023-05-25T05:22:45;100225.86;;;32.56;33.43
43681;BME280;29281;50.356;30.894;2023-05-25T05:23:48;100225.08;;;32.15;32.80
43681;BME280;29281;50.356;30.894;2023-05-25T05:24:52;100239.84;;;32.38;32.53
43681;BME280;29281;50.356;30.894;2023-05-25T05:25:57;100240.62;;;32.95;32.17
43681;BME280;29281;50.356;30.894;2023-05-25T05:27:00;100246.14;;;33.67;31.24
43681;BME280;29281;50.356;30.894;2023-05-25T05:28:14;100243.23;;;33.96;30.45
43681;BME280;29281;50.356;30.894;2023-05-25T05:29:18;100253.68;;;34.15;30.64
43681;BME280;29281;50.356;30.894;2023-05-25T05:30:24;100248.72;;;33.74;30.61
43681;BME280;29281;50.356;30.894;2023-05-25T05:31:27;100255.13;;;33.41;30.64
43681;BME280;29281;50.356;30.894;2023-05-25T05:32:30;100255.86;;;33.19;31.15
43681;BME280;29281;50.356;30.894;2023-05-25T05:33:35;100251.34;;;33.47;30.95
43681;BME280;29281;50.356;30.894;2023-05-25T05:34:40;100252.14;;;33.81;30.69
43681;BME280;29281;50.356;30.894;2023-05-25T05:35:46;100252.31;;;33.74;30.54
43681;BME280;29281;50.356;30.894;2023-05-25T05:36:51;100263.80;;;33.33;31.07
43681;BME280;29281;50.356;30.894;2023-05-25T05:37:56;100249.69;;;32.79;31.94
43681;BME280;29281;50.356;30.894;2023-05-25T05:38:59;100252.36;;;31.94;32.68
43681;BME280;29281;50.356;30.894;2023-05-25T05:40:08;100254.50;;;32.43;32.56